createdAt,value
2022-08-05T00:00:24.229Z,100532.94
2022-08-05T00:02:54.305Z,100522.94
2022-08-05T00:06:01.838Z,100524.84
2022-08-05T00:08:32.541Z,100524.59
2022-08-05T00:11:02.404Z,100524.00
2022-08-05T00:13:39.098Z,100521.56
2022-08-05T00:16:12.228Z,100520.81
2022-08-05T00:18:42.558Z,100517.44
2022-08-05T00:21:14.468Z,100524.94
2022-08-05T00:23:46.408Z,100524.28
2022-08-05T00:26:23.110Z,100523.00
2022-08-05T00:28:51.907Z,100527.31
2022-08-05T00:31:53.046Z,100528.13
2022-08-05T00:34:53.261Z,100522.28
2022-08-05T00:37:12.833Z,100526.41
2022-08-05T00:39:57.436Z,100507.63
2022-08-05T00:42:36.846Z,100521.66
2022-08-05T00:45:08.473Z,100510.78
2022-08-05T00:47:56.728Z,100520.34
2022-08-05T00:50:26.069Z,100514.00
2022-08-05T00:52:55.122Z,100507.94
2022-08-05T00:55:42.281Z,100508.00
2022-08-05T00:58:14.579Z,100513.09
2022-08-05T01:00:42.754Z,100519.19
2022-08-05T01:03:22.261Z,100518.88
2022-08-05T01:05:51.636Z,100520.34
2022-08-05T01:08:41.991Z,100524.88
2022-08-05T01:11:14.735Z,100518.47
2022-08-05T01:14:01.139Z,100518.28
2022-08-05T01:16:33.915Z,100523.16
2022-08-05T01:19:14.319Z,100513.91
2022-08-05T01:22:07.003Z,100512.78
2022-08-05T01:25:06.705Z,100505.41
2022-08-05T01:28:10.438Z,100513.75
2022-08-05T01:30:52.426Z,100515.91
2022-08-05T01:33:26.154Z,100509.69
2022-08-05T01:35:57.791Z,100510.56
2022-08-05T01:38:29.966Z,100510.41
2022-08-05T01:41:01.476Z,100507.72
2022-08-05T01:43:33.485Z,100499.38
2022-08-05T01:46:07.166Z,100507.25
2022-08-05T01:48:49.581Z,100502.03
2022-08-05T01:51:19.878Z,100500.63
2022-08-05T01:53:56.915Z,100500.31
2022-08-05T01:58:18.880Z,100500.16
2022-08-05T01:59:24.518Z,100492.41
2022-08-05T02:01:57.778Z,100497.47
2022-08-05T02:04:29.963Z,100487.66
2022-08-05T02:06:59.858Z,100494.47
2022-08-05T02:09:31.825Z,100488.31
2022-08-05T02:12:10.104Z,100487.94
2022-08-05T02:14:44.018Z,100482.25
2022-08-05T02:18:28.383Z,100489.63
2022-08-05T02:20:20.788Z,100477.56
2022-08-05T02:22:57.182Z,100480.81
2022-08-05T02:25:33.324Z,100476.88
2022-08-05T02:28:04.347Z,100486.44
2022-08-05T02:30:54.071Z,100486.59
2022-08-05T02:33:24.373Z,100486.16
2022-08-05T02:36:06.308Z,100486.78
2022-08-05T02:38:38.700Z,100489.09
2022-08-05T02:41:17.331Z,100477.63
2022-08-05T02:44:06.392Z,100481.34
2022-08-05T02:46:53.218Z,100485.28
2022-08-05T02:49:36.723Z,100488.97
2022-08-05T02:52:09.138Z,100484.75
2022-08-05T02:54:41.442Z,100484.25
2022-08-05T02:58:10.735Z,100488.84
2022-08-05T03:00:02.749Z,100495.78
2022-08-05T03:02:37.741Z,100512.31
2022-08-05T03:05:10.346Z,100511.22
2022-08-05T03:08:06.716Z,100512.31
2022-08-05T03:10:29.049Z,100505.25
2022-08-05T03:15:24.654Z,100507.91
2022-08-05T03:17:57.803Z,100509.75
2022-08-05T03:20:26.415Z,100514.75
2022-08-05T03:22:57.677Z,100524.75
2022-08-05T03:25:33.176Z,100525.81
2022-08-05T03:28:23.888Z,100516.41
2022-08-05T03:30:52.202Z,100511.25
2022-08-05T03:33:25.089Z,100516.19
2022-08-05T03:36:13.611Z,100512.63
2022-08-05T03:38:42.989Z,100519.28
2022-08-05T03:41:20.675Z,100524.53
2022-08-05T03:44:08.666Z,100523.00
2022-08-05T03:46:39.844Z,100519.41
2022-08-05T03:49:09.336Z,100513.25
2022-08-05T03:52:37.212Z,100521.91
2022-08-05T03:55:52.150Z,100509.19
2022-08-05T03:57:41.500Z,100496.88
2022-08-05T04:00:15.907Z,100508.34
2022-08-05T04:02:57.750Z,100504.25
2022-08-05T04:05:33.202Z,100511.59
2022-08-05T04:08:05.760Z,100507.69
2022-08-05T04:10:51.077Z,100517.50
2022-08-05T04:16:03.004Z,100509.19
2022-08-05T04:18:34.325Z,100514.09
2022-08-05T04:21:05.026Z,100499.94
2022-08-05T04:24:00.229Z,100505.97
2022-08-05T04:26:24.055Z,100503.19
2022-08-05T04:28:52.969Z,100506.66
2022-08-05T04:31:21.411Z,100505.53
2022-08-05T04:34:17.403Z,100508.66
2022-08-05T04:36:45.812Z,100512.06
2022-08-05T04:39:17.856Z,100509.69
2022-08-05T04:41:48.176Z,100502.00
2022-08-05T04:44:21.591Z,100507.84
2022-08-05T04:46:58.496Z,100506.66
2022-08-05T04:49:38.608Z,100506.22
2022-08-05T04:52:16.604Z,100503.41
2022-08-05T04:54:44.810Z,100503.63
2022-08-05T04:57:12.957Z,100500.28
2022-08-05T04:59:41.157Z,100502.81
2022-08-05T05:02:36.357Z,100501.13
2022-08-05T05:05:02.175Z,100515.41
2022-08-05T05:07:35.327Z,100516.22
2022-08-05T05:10:06.602Z,100511.47
2022-08-05T05:12:36.776Z,100519.47
2022-08-05T05:15:10.657Z,100520.47
2022-08-05T05:17:55.541Z,100510.41
2022-08-05T05:20:28.364Z,100509.22
2022-08-05T05:22:58.973Z,100511.84
2022-08-05T05:25:32.827Z,100511.09
2022-08-05T05:28:09.274Z,100510.53
2022-08-05T05:30:38.274Z,100503.91
2022-08-05T05:33:16.226Z,100501.34
2022-08-05T05:35:46.731Z,100510.41
2022-08-05T05:38:27.112Z,100499.13
2022-08-05T05:40:57.018Z,100503.22
2022-08-05T05:43:54.169Z,100496.13
2022-08-05T05:46:17.509Z,100508.13
2022-08-05T05:48:48.838Z,100504.06
2022-08-05T05:51:21.655Z,100514.69
2022-08-05T05:53:57.657Z,100524.28
2022-08-05T05:56:32.386Z,100525.88
2022-08-05T05:59:05.862Z,100530.53
2022-08-05T06:01:37.349Z,100531.88
2022-08-05T06:04:08.339Z,100522.38
2022-08-05T06:06:41.687Z,100533.22
2022-08-05T06:09:16.712Z,100529.94
2022-08-05T06:11:58.963Z,100527.50
2022-08-05T06:14:28.822Z,100521.38
2022-08-05T06:16:57.922Z,100518.06
2022-08-05T06:19:34.910Z,100520.69
2022-08-05T06:22:04.433Z,100521.19
2022-08-05T06:24:37.645Z,100508.31
2022-08-05T06:27:05.932Z,100509.81
2022-08-05T06:29:54.346Z,100508.53
2022-08-05T06:32:33.934Z,100521.13
2022-08-05T06:35:05.943Z,100522.53
2022-08-05T06:37:57.601Z,100535.56
2022-08-05T06:40:32.308Z,100548.94
2022-08-05T06:43:00.815Z,100557.09
2022-08-05T06:45:45.055Z,100561.91
2022-08-05T06:48:52.777Z,100565.72
2022-08-05T06:51:09.409Z,100566.44
2022-08-05T06:53:39.261Z,100570.03
2022-08-05T06:56:11.694Z,100583.16
2022-08-05T06:58:55.454Z,100594.09
2022-08-05T07:01:32.070Z,100596.78
2022-08-05T07:04:02.462Z,100611.44
2022-08-05T07:06:32.196Z,100626.06
2022-08-05T07:09:04.291Z,100622.31
2022-08-05T07:11:37.305Z,100617.31
2022-08-05T07:14:29.513Z,100619.56
2022-08-05T07:17:58.595Z,100625.13
2022-08-05T07:20:34.074Z,100618.84
2022-08-05T07:22:39.183Z,100610.63
2022-08-05T07:25:21.697Z,100600.38
2022-08-05T07:28:03.784Z,100606.41
2022-08-05T07:30:38.563Z,100594.25
2022-08-05T07:33:16.621Z,100601.00
2022-08-05T07:36:01.624Z,100600.53
2022-08-05T07:38:43.601Z,100594.03
2022-08-05T07:42:14.677Z,100593.75
2022-08-05T07:44:14.464Z,100600.13
2022-08-05T07:46:48.449Z,100598.84
2022-08-05T07:49:18.554Z,100600.84
2022-08-05T07:51:53.863Z,100611.38
2022-08-05T07:54:31.667Z,100610.38
2022-08-05T07:57:16.706Z,100606.88
2022-08-05T07:59:49.011Z,100608.09
2022-08-05T08:02:18.093Z,100617.91
2022-08-05T08:04:47.924Z,100625.47
2022-08-05T08:07:17.921Z,100626.44
2022-08-05T08:09:46.865Z,100628.59
2022-08-05T08:12:36.960Z,100632.41
2022-08-05T08:15:14.278Z,100648.00
2022-08-05T08:17:49.893Z,100638.94
2022-08-05T08:20:44.370Z,100629.13
2022-08-05T08:23:11.599Z,100644.06
2022-08-05T08:25:59.679Z,100638.00
2022-08-05T08:28:37.215Z,100637.47
2022-08-05T08:31:19.177Z,100637.94
2022-08-05T08:33:51.787Z,100642.72
2022-08-05T08:36:38.967Z,100648.50
2022-08-05T08:39:15.109Z,100637.47
2022-08-05T08:41:52.393Z,100634.53
2022-08-05T08:45:23.433Z,100616.59
2022-08-05T08:48:06.277Z,100628.00
2022-08-05T08:50:30.469Z,100628.13
2022-08-05T08:53:07.870Z,100640.78
2022-08-05T08:56:03.979Z,100635.97
2022-08-05T08:58:43.857Z,100650.16
2022-08-05T09:01:18.122Z,100644.50
2022-08-05T09:03:54.440Z,100644.31
2022-08-05T09:06:28.108Z,100633.13
2022-08-05T09:08:59.781Z,100636.78
2022-08-05T09:11:50.454Z,100638.44
2022-08-05T09:14:56.854Z,100649.41
2022-08-05T09:17:08.129Z,100649.03
2022-08-05T09:20:01.911Z,100665.56
2022-08-05T09:22:31.252Z,100667.78
2022-08-05T09:25:01.722Z,100663.47
2022-08-05T09:28:05.961Z,100683.63
2022-08-05T09:30:29.978Z,100666.41
2022-08-05T09:33:02.600Z,100673.28
2022-08-05T09:35:35.825Z,100671.13
2022-08-05T09:38:12.938Z,100662.50
2022-08-05T09:40:52.016Z,100659.13
2022-08-05T09:43:40.977Z,100653.91
2022-08-05T09:46:27.593Z,100662.00
2022-08-05T09:49:07.955Z,100661.22
2022-08-05T09:51:49.409Z,100665.69
2022-08-05T09:54:29.008Z,100660.25
2022-08-05T09:57:01.474Z,100671.13
2022-08-05T09:59:35.082Z,100666.97
2022-08-05T10:02:06.143Z,100672.88
2022-08-05T10:04:40.913Z,100669.44
2022-08-05T10:07:19.833Z,100670.75
2022-08-05T10:10:13.844Z,100670.69
2022-08-05T10:12:49.628Z,100673.53
2022-08-05T10:15:23.824Z,100684.84
2022-08-05T10:18:14.624Z,100690.38
2022-08-05T10:20:48.395Z,100676.38
2022-08-05T10:23:22.171Z,100669.72
2022-08-05T10:26:14.196Z,100681.66
2022-08-05T10:28:44.878Z,100691.75
2022-08-05T10:32:50.523Z,100684.91
2022-08-05T10:34:03.919Z,100684.94
2022-08-05T10:36:36.410Z,100671.78
2022-08-05T10:39:11.879Z,100670.63
2022-08-05T10:42:01.174Z,100660.47
2022-08-05T10:44:32.259Z,100643.16
2022-08-05T10:47:26.949Z,100643.13
2022-08-05T10:50:31.980Z,100651.44
2022-08-05T10:52:58.762Z,100673.50
2022-08-05T10:55:30.446Z,100694.47
2022-08-05T10:58:11.200Z,100702.41
2022-08-05T11:00:46.539Z,100711.44
2022-08-05T11:03:23.392Z,100707.06
2022-08-05T11:06:21.085Z,100692.25
2022-08-05T11:09:31.988Z,100694.72
2022-08-05T11:12:45.385Z,100683.84
2022-08-05T11:15:21.515Z,100670.59
2022-08-05T11:17:59.345Z,100650.16
2022-08-05T11:20:44.249Z,100660.22
2022-08-05T11:24:05.689Z,100673.69
2022-08-05T11:26:28.671Z,100684.78
2022-08-05T11:29:05.161Z,100681.28
2022-08-05T11:31:56.930Z,100672.00
2022-08-05T11:34:52.242Z,100650.78
2022-08-05T11:38:30.622Z,100645.03
2022-08-05T11:41:13.976Z,100659.88
2022-08-05T11:44:07.080Z,100677.00
2022-08-05T11:46:58.727Z,100685.56
2022-08-05T11:49:28.723Z,100689.78
2022-08-05T11:51:57.541Z,100698.84
2022-08-05T11:54:33.214Z,100701.69
2022-08-05T11:57:07.987Z,100711.22
2022-08-05T11:59:53.206Z,100692.00
2022-08-05T12:02:30.335Z,100710.59
2022-08-05T12:05:08.144Z,100724.09
2022-08-05T12:08:07.859Z,100722.66
2022-08-05T12:10:42.970Z,100717.41
2022-08-05T12:13:15.771Z,100730.53
2022-08-05T12:15:49.990Z,100725.31
2022-08-05T12:18:20.578Z,100731.97
2022-08-05T12:20:52.422Z,100735.59
2022-08-05T12:23:20.564Z,100733.56
2022-08-05T12:25:50.805Z,100733.81
2022-08-05T12:28:32.995Z,100729.38
2022-08-05T12:31:02.325Z,100725.22
2022-08-05T12:33:36.266Z,100734.44
2022-08-05T12:36:08.407Z,100719.44
2022-08-05T12:38:39.750Z,100734.97
2022-08-05T12:41:13.077Z,100736.25
2022-08-05T12:43:53.289Z,100735.97
2022-08-05T12:46:29.487Z,100737.28
2022-08-05T12:49:05.902Z,100726.69
2022-08-05T12:52:12.353Z,100731.84
2022-08-05T12:54:34.522Z,100741.44
2022-08-05T12:57:04.285Z,100741.22
2022-08-05T13:00:08.522Z,100745.97
2022-08-05T13:02:37.353Z,100737.09
2022-08-05T13:05:12.583Z,100730.06
2022-08-05T13:08:01.030Z,100737.09
2022-08-05T13:10:32.934Z,100746.81
2022-08-05T13:13:01.087Z,100750.38
2022-08-05T13:15:42.117Z,100749.19
2022-08-05T13:18:20.235Z,100743.81
2022-08-05T13:20:50.409Z,100747.06
2022-08-05T13:23:22.908Z,100741.25
2022-08-05T13:25:59.575Z,100735.91
2022-08-05T13:28:32.179Z,100740.84
2022-08-05T13:31:10.913Z,100743.47
2022-08-05T13:34:24.989Z,100740.03
2022-08-05T13:36:28.894Z,100740.31
2022-08-05T13:38:57.269Z,100740.09
2022-08-05T13:41:25.780Z,100736.09
2022-08-05T13:44:04.594Z,100730.81
2022-08-05T13:46:43.815Z,100725.16
2022-08-05T13:49:19.378Z,100737.53
2022-08-05T13:51:48.899Z,100726.84
2022-08-05T13:54:21.198Z,100719.06
2022-08-05T13:56:54.329Z,100728.00
2022-08-05T13:59:27.138Z,100729.88
2022-08-05T14:02:00.792Z,100727.28
2022-08-05T14:04:49.738Z,100739.91
2022-08-05T14:07:25.560Z,100728.75
2022-08-05T14:10:12.050Z,100734.16
2022-08-05T14:12:42.667Z,100722.84
2022-08-05T14:16:09.327Z,100734.53
2022-08-05T14:18:00.789Z,100732.53
2022-08-05T14:20:29.548Z,100737.22
2022-08-05T14:22:59.511Z,100721.94
2022-08-05T14:25:30.278Z,100722.22
2022-08-05T14:27:58.803Z,100722.97
2022-08-05T14:30:28.346Z,100723.22
2022-08-05T14:32:59.126Z,100728.91
2022-08-05T14:35:37.327Z,100728.22
2022-08-05T14:38:31.935Z,100731.84
2022-08-05T14:41:06.906Z,100736.44
2022-08-05T14:44:02.361Z,100735.34
2022-08-05T14:46:28.794Z,100737.63
2022-08-05T14:49:06.586Z,100744.72
2022-08-05T14:51:37.670Z,100736.28
2022-08-05T14:54:30.058Z,100745.50
2022-08-05T14:56:57.060Z,100739.19
2022-08-05T14:59:25.385Z,100735.72
2022-08-05T15:01:58.683Z,100748.41
2022-08-05T15:04:28.996Z,100740.13
2022-08-05T15:06:57.430Z,100739.81
2022-08-05T15:09:52.588Z,100736.66
2022-08-05T15:12:16.732Z,100733.44
2022-08-05T15:14:49.869Z,100742.56
2022-08-05T15:17:45.861Z,100748.00
2022-08-05T15:20:18.473Z,100753.72
2022-08-05T15:22:54.362Z,100758.31
2022-08-05T15:25:41.344Z,100759.16
2022-08-05T15:28:16.210Z,100759.59
2022-08-05T15:30:45.836Z,100759.19
2022-08-05T15:34:04.145Z,100753.31
2022-08-05T15:36:04.675Z,100753.50
2022-08-05T15:38:36.610Z,100756.44
2022-08-05T15:41:22.707Z,100754.75
2022-08-05T15:43:52.071Z,100768.72
2022-08-05T15:46:24.882Z,100772.94
2022-08-05T15:49:00.833Z,100770.53
2022-08-05T15:52:04.198Z,100763.56
2022-08-05T15:54:34.692Z,100749.53
2022-08-05T15:57:07.425Z,100749.25
2022-08-05T15:59:36.343Z,100754.66
2022-08-05T16:02:09.748Z,100754.25
2022-08-05T16:04:43.435Z,100748.41
2022-08-05T16:07:13.334Z,100761.16
2022-08-05T16:09:43.502Z,100776.75
2022-08-05T16:12:13.148Z,100768.19
2022-08-05T16:14:43.901Z,100766.63
2022-08-05T16:17:13.048Z,100767.03
2022-08-05T16:20:04.198Z,100779.28
2022-08-05T16:22:34.036Z,100783.25
2022-08-05T16:25:08.201Z,100782.81
2022-08-05T16:27:59.848Z,100787.00
2022-08-05T16:30:30.702Z,100788.22
2022-08-05T16:33:01.331Z,100783.09
2022-08-05T16:35:32.449Z,100776.81
2022-08-05T16:38:24.700Z,100782.09
2022-08-05T16:40:55.036Z,100783.31
2022-08-05T16:43:27.678Z,100794.50
2022-08-05T16:46:04.678Z,100806.22
2022-08-05T16:48:37.945Z,100824.53
2022-08-05T16:51:08.939Z,100818.84
2022-08-05T16:54:04.998Z,100818.75
2022-08-05T16:56:33.753Z,100816.06
2022-08-05T16:59:08.522Z,100816.41
2022-08-05T17:01:53.217Z,100832.97
2022-08-05T17:04:26.351Z,100836.81
2022-08-05T17:07:00.211Z,100844.69
2022-08-05T17:09:30.074Z,100847.13
2022-08-05T17:11:59.747Z,100851.63
2022-08-05T17:14:37.362Z,100849.66
2022-08-05T17:17:14.398Z,100839.84
2022-08-05T17:19:46.065Z,100828.94
2022-08-05T17:22:24.862Z,100822.63
2022-08-05T17:24:57.943Z,100805.06
2022-08-05T17:27:34.544Z,100849.50
2022-08-05T17:30:18.691Z,100864.09
2022-08-05T17:32:55.883Z,100865.66
2022-08-05T17:35:24.113Z,100864.78
2022-08-05T17:37:53.155Z,100851.00
2022-08-05T17:40:29.321Z,100857.09
2022-08-05T17:42:59.837Z,100863.41
2022-08-05T17:45:38.566Z,100871.28
2022-08-05T17:48:07.901Z,100872.84
2022-08-05T17:50:36.485Z,100866.50
2022-08-05T17:53:08.484Z,100876.50
2022-08-05T17:55:37.845Z,100887.09
2022-08-05T17:58:13.337Z,100896.63
2022-08-05T18:00:47.120Z,100907.00
2022-08-05T18:03:56.327Z,100917.81
2022-08-05T18:06:11.925Z,100925.81
2022-08-05T18:08:44.901Z,100931.94
2022-08-05T18:11:24.473Z,100940.69
2022-08-05T18:14:03.496Z,100955.78
2022-08-05T18:16:34.095Z,100974.81
2022-08-05T18:19:03.379Z,100965.53
2022-08-05T18:22:09.800Z,100975.91
2022-08-05T18:24:20.986Z,100991.81
2022-08-05T18:26:49.266Z,100994.16
2022-08-05T18:29:17.564Z,101010.38
2022-08-05T18:32:07.582Z,101008.69
2022-08-05T18:34:42.897Z,101012.22
2022-08-05T18:37:12.107Z,101017.44
2022-08-05T18:40:30.896Z,101029.59
2022-08-05T18:42:29.547Z,101031.09
2022-08-05T18:44:57.837Z,101034.38
2022-08-05T18:47:31.042Z,101047.31
2022-08-05T18:50:20.025Z,101053.19
2022-08-05T18:53:13.206Z,101080.16
2022-08-05T18:55:47.530Z,101089.50
2022-08-05T18:58:16.481Z,101093.91
2022-08-05T19:00:45.094Z,101102.91
2022-08-05T19:03:17.725Z,101097.16
2022-08-05T19:06:18.471Z,101090.69
2022-08-05T19:08:50.529Z,101078.16
2022-08-05T19:11:27.967Z,101085.59
2022-08-05T19:14:00.613Z,101092.78
2022-08-05T19:16:33.104Z,101102.16
2022-08-05T19:19:20.777Z,101113.03
2022-08-05T19:21:49.987Z,101098.75
2022-08-05T19:24:34.901Z,101092.25
2022-08-05T19:27:04.115Z,101093.94
2022-08-05T19:29:35.954Z,101099.84
2022-08-05T19:32:11.246Z,101107.22
2022-08-05T19:34:41.947Z,101104.00
2022-08-05T19:37:22.682Z,101109.56
2022-08-05T19:40:10.038Z,101117.91
2022-08-05T19:42:39.051Z,101121.31
2022-08-05T19:45:14.372Z,101141.59
2022-08-05T19:47:44.009Z,101150.41
2022-08-05T19:50:13.859Z,101155.50
2022-08-05T19:52:42.442Z,101165.84
2022-08-05T19:56:14.497Z,101170.38
2022-08-05T19:58:28.272Z,101171.34
2022-08-05T20:00:53.054Z,101171.94
2022-08-05T20:03:21.450Z,101158.06
2022-08-05T20:05:52.560Z,101165.13
2022-08-05T20:08:24.473Z,101160.63
2022-08-05T20:10:58.100Z,101175.66
2022-08-05T20:13:54.493Z,101176.19
2022-08-05T20:16:19.576Z,101186.97
2022-08-05T20:18:55.533Z,101195.47
2022-08-05T20:21:29.539Z,101196.31
2022-08-05T20:23:59.768Z,101198.88
2022-08-05T20:26:28.733Z,101209.06
2022-08-05T20:29:00.677Z,101205.66
2022-08-05T20:31:42.134Z,101208.78
2022-08-05T20:34:18.937Z,101206.97
2022-08-05T20:36:49.601Z,101203.38
2022-08-05T20:39:18.363Z,101214.16
2022-08-05T20:41:48.253Z,101210.50
2022-08-05T20:44:29.478Z,101208.50
2022-08-05T20:46:59.040Z,101223.53
2022-08-05T20:49:27.453Z,101232.09
2022-08-05T20:51:58.088Z,101232.25
2022-08-05T20:54:43.080Z,101243.81
2022-08-05T20:57:41.860Z,101249.88
2022-08-05T21:00:21.094Z,101255.69
2022-08-05T21:02:57.703Z,101259.69
2022-08-05T21:05:37.999Z,101271.75
2022-08-05T21:08:15.693Z,101283.94
2022-08-05T21:10:48.577Z,101290.56
2022-08-05T21:13:36.796Z,101289.22
2022-08-05T21:16:06.546Z,101281.81
2022-08-05T21:18:34.701Z,101277.88
2022-08-05T21:21:04.407Z,101279.13
2022-08-05T21:23:36.995Z,101277.25
2022-08-05T21:26:12.418Z,101278.53
2022-08-05T21:28:50.551Z,101283.97
2022-08-05T21:31:19.227Z,101301.88
2022-08-05T21:33:49.443Z,101306.66
2022-08-05T21:36:19.183Z,101310.91
2022-08-05T21:38:57.424Z,101305.53
2022-08-05T21:41:33.020Z,101310.72
2022-08-05T21:44:04.457Z,101313.19
2022-08-05T21:46:34.275Z,101309.34
2022-08-05T21:49:04.786Z,101317.44
2022-08-05T21:52:22.059Z,101313.94
2022-08-05T21:54:30.620Z,101321.13
2022-08-05T21:57:29.608Z,101326.38
2022-08-05T22:00:03.910Z,101324.53
2022-08-05T22:02:41.819Z,101336.41
2022-08-05T22:05:11.258Z,101336.59
2022-08-05T22:07:57.957Z,101334.94
2022-08-05T22:10:29.424Z,101334.31
2022-08-05T22:14:05.176Z,101340.28
2022-08-05T22:16:04.680Z,101342.00
2022-08-05T22:18:36.225Z,101320.41
2022-08-05T22:21:18.833Z,101323.44
2022-08-05T22:24:12.825Z,101340.69
2022-08-05T22:27:00.359Z,101345.75
2022-08-05T22:29:35.073Z,101353.84
2022-08-05T22:32:03.615Z,101362.91
2022-08-05T22:34:32.902Z,101353.63
2022-08-05T22:37:03.972Z,101365.84
2022-08-05T22:39:34.556Z,101379.72
2022-08-05T22:42:10.231Z,101383.06
2022-08-05T22:44:56.924Z,101376.94
2022-08-05T22:47:30.032Z,101385.88
2022-08-05T22:50:22.816Z,101391.94
2022-08-05T22:52:48.643Z,101387.69
2022-08-05T22:55:19.466Z,101383.97
2022-08-05T22:57:51.019Z,101383.94
2022-08-05T23:00:21.487Z,101387.16
2022-08-05T23:02:50.308Z,101385.97
2022-08-05T23:05:19.188Z,101380.75
2022-08-05T23:07:51.158Z,101381.50
2022-08-05T23:10:24.017Z,101386.50
2022-08-05T23:12:55.898Z,101389.41
2022-08-05T23:15:27.142Z,101382.09
2022-08-05T23:18:00.761Z,101386.97
2022-08-05T23:20:32.346Z,101384.03
2022-08-05T23:23:03.631Z,101385.28
2022-08-05T23:25:51.551Z,101386.16
2022-08-05T23:28:28.722Z,101375.78
2022-08-05T23:31:15.839Z,101368.09
2022-08-05T23:34:04.306Z,101387.47
2022-08-05T23:36:38.420Z,101397.59
2022-08-05T23:39:07.368Z,101388.53
2022-08-05T23:41:37.385Z,101389.47
2022-08-05T23:44:11.096Z,101382.63
2022-08-05T23:46:39.566Z,101394.72
2022-08-05T23:49:16.879Z,101406.81
2022-08-05T23:52:03.465Z,101394.38
2022-08-05T23:54:36.359Z,101396.50
2022-08-05T23:57:07.900Z,101406.72
